aviador You're here:

PAHL Decoded Metar

HUSLIA in AK, USA
Report Time2018-02-21 20:56:00
UTC Time2018-02-21 21:16:06
Flight Rules ifr IFR
Wind120° at 04 kt
W.Decomp.*RWY 03: 1.3 kt HW 3.8 kt RCW
W.Rank120° ranks 35
Current wind is below 120° avg. (4.8)
Visibility1609 m
Phenomena:Light Snow
Mist
Clouds:Broken 022 Hf
Overcast 034 Hf
Expected CloudBase > 400 ft AGL from Temp-Dew spread
Ceiling2,200 ft
Temp-5°C (ISA -20)
Dew Point-6°C (93% RH)
AAT-9.1°C
QNH1023 hPa
Density Alt-2,493 ft
Elevation213 ft
Report Wrong Elevation
Raw Report
PAHL 212056Z AUTO 12004KT 1SM -SN BR BKN022 OVC034 M05/M06 A3020
RMK AO2 SNB12 SLP237 P0000 60000 T10501056 56014 FZRANO=

Extra information for PAHL:More info

Metar Taf Metar & Taf Last 4 Metars F.Rules Stats Wind Profile Meteogram Temp Stats Airport Information Weather charts Add Link Nearby VenuesMetar ALERT Operation Metar Decoded Social comments

AIRNAV info for PAHL